Terminal Aerodrome Forecast
Issued by NWS

Home | Current Version | Previous Version | Graphics & Text | Print | Product List | Glossary On
Versions: 1 2 3 4 5 6 7 8 9 10 11 12 13 14 15 16 17 18 19 20
000
FTUS43 KOAX 281500 AAA
TAFCDR
TAF AMD
KCDR 281529Z 2815/2912 29006KT P6SM VCSH FEW012 OVC020
     FM281700 32008KT P6SM VCTS SCT020 BKN050CB
     FM282200 VRB06KT P6SM SCT050=

USA.gov is the U.S. government's official web portal to all federal, state and local government web resources and services.